Time;durP1;ratioP1;P1;durP2;ratioP2;P2;SDS_P1;SDS_P2;PMS_P1;PMS_P2;Temp;Humidity;BMP_temperature;BMP_pressure;BME280_temperature;BME280_humidity;BME280_pressure;Samples;Min_cycle;Max_cycle;Signal;HPM_P1;HPM_P2
2023/03/05 00:02:02;;;;;;;53.53;30.85;;;;;;;4.96;81.24;98421.63;4186800;28;20264;-88
2023/03/05 00:04:13;;;;;;;56.83;31.60;;;;;;;4.95;81.98;98415.63;4183695;28;20217;-88
2023/03/05 00:06:18;;;;;;;52.08;31.23;;;;;;;4.94;81.55;98413.94;4183411;28;20696;-89
2023/03/05 00:08:22;;;;;;;56.78;32.90;;;;;;;4.96;82.28;98413.88;4183652;28;20734;-88
2023/03/05 00:10:25;;;;;;;62.63;35.47;;;;;;;4.97;82.25;98413.00;4181139;28;20197;-88
2023/03/05 00:12:30;;;;;;;61.83;33.53;;;;;;;4.97;81.50;98418.16;4182551;28;20550;-88
2023/03/05 00:14:33;;;;;;;55.35;32.30;;;;;;;4.93;82.41;98414.88;4182542;28;20227;-88
2023/03/05 00:16:36;;;;;;;58.55;33.45;;;;;;;4.93;82.29;98417.44;4188583;28;20196;-88
2023/03/05 00:18:41;;;;;;;71.25;37.92;;;;;;;4.96;81.76;98422.50;4193289;28;20202;-88
2023/03/05 00:20:44;;;;;;;63.58;36.00;;;;;;;4.96;82.03;98419.91;4179441;28;20225;-88
2023/03/05 00:22:48;;;;;;;70.03;37.95;;;;;;;4.92;81.42;98414.94;4167805;28;20228;-88
2023/03/05 00:24:51;;;;;;;58.17;33.28;;;;;;;4.87;82.17;98415.13;4171592;28;20241;-88
2023/03/05 00:26:54;;;;;;;53.95;30.98;;;;;;;4.86;83.48;98412.59;4198024;28;20224;-88
2023/03/05 00:28:58;;;;;;;60.28;32.97;;;;;;;4.83;83.56;98412.72;4189996;28;20227;-88
2023/03/05 00:31:02;;;;;;;60.05;31.75;;;;;;;4.80;84.08;98405.91;4204310;28;20202;-88
2023/03/05 00:33:06;;;;;;;53.30;31.42;;;;;;;4.81;83.91;98407.63;4187579;28;20244;-88
2023/03/05 00:35:11;;;;;;;55.35;32.63;;;;;;;4.82;83.06;98396.34;4172543;28;20577;-88
2023/03/05 00:37:14;;;;;;;58.55;32.33;;;;;;;4.81;83.80;98401.59;4183632;28;20206;-88
2023/03/05 00:39:18;;;;;;;61.00;33.35;;;;;;;4.82;83.89;98408.44;4193390;28;20216;-88
2023/03/05 00:41:21;;;;;;;53.75;30.27;;;;;;;4.81;84.02;98404.16;4189493;28;20213;-88
2023/03/05 00:43:24;;;;;;;57.70;32.58;;;;;;;4.80;84.93;98399.94;4192686;28;20206;-88
2023/03/05 00:45:28;;;;;;;57.40;32.45;;;;;;;4.81;84.55;98401.59;4222163;27;20745;-88
2023/03/05 00:47:31;;;;;;;56.80;31.77;;;;;;;4.82;84.92;98406.69;4167015;28;20655;-88
2023/03/05 00:49:34;;;;;;;63.50;32.00;;;;;;;4.80;84.55;98397.34;4177645;28;20615;-88
2023/03/05 00:51:39;;;;;;;57.25;32.03;;;;;;;4.79;84.52;98398.22;4174649;28;20267;-88
2023/03/05 00:53:42;;;;;;;53.25;32.28;;;;;;;4.81;85.56;98396.41;4189399;28;20206;-88
2023/03/05 00:55:51;;;;;;;54.63;31.70;;;;;;;4.82;84.91;98393.78;4193615;28;20206;-88
2023/03/05 00:57:55;;;;;;;52.83;31.35;;;;;;;4.85;84.36;98398.00;4189280;28;20238;-88
2023/03/05 00:59:58;;;;;;;57.40;33.72;;;;;;;4.86;84.16;98397.09;4184200;28;20202;-88
2023/03/05 01:02:01;;;;;;;60.75;32.58;;;;;;;4.85;84.06;98382.47;4177094;28;20206;-88
2023/03/05 01:04:05;;;;;;;55.75;32.20;;;;;;;4.85;84.71;98392.81;4174203;28;20306;-88
2023/03/05 01:06:12;;;;;;;60.60;32.28;;;;;;;4.85;85.18;98379.91;4190350;28;20226;-88
2023/03/05 01:08:17;;;;;;;58.85;32.80;;;;;;;4.82;84.79;98382.59;4203347;28;20205;-88
2023/03/05 01:10:20;;;;;;;62.72;32.92;;;;;;;4.83;84.49;98382.56;4183756;28;20295;-88
2023/03/05 01:12:23;;;;;;;60.63;33.13;;;;;;;4.85;83.85;98377.31;4177615;28;20628;-88
2023/03/05 01:14:27;;;;;;;58.55;32.90;;;;;;;4.86;84.41;98379.84;4186101;28;20202;-88
2023/03/05 01:16:30;;;;;;;49.17;29.80;;;;;;;4.88;84.12;98378.03;4189512;28;20217;-88
2023/03/05 01:18:33;;;;;;;55.20;29.73;;;;;;;4.88;84.43;98377.19;4182022;28;20200;-88
2023/03/05 01:20:37;;;;;;;53.83;28.95;;;;;;;4.90;85.22;98370.22;4174248;28;20199;-88
2023/03/05 01:22:40;;;;;;;52.25;30.35;;;;;;;4.92;83.85;98377.00;4179673;28;20226;-88
2023/03/05 01:24:45;;;;;;;53.65;27.08;;;;;;;4.94;83.33;98377.78;4185740;28;21457;-88
2023/03/05 01:26:48;;;;;;;53.80;30.90;;;;;;;4.95;83.69;98363.97;4206074;28;20205;-88
2023/03/05 01:28:51;;;;;;;54.67;30.33;;;;;;;4.95;84.00;98369.13;4186686;28;20199;-88
2023/03/05 01:30:54;;;;;;;54.50;30.92;;;;;;;4.94;82.79;98366.59;4190494;28;20242;-88
2023/03/05 01:32:58;;;;;;;53.10;28.85;;;;;;;4.93;83.18;98363.19;4175683;28;20308;-88
2023/03/05 01:35:01;;;;;;;53.15;28.40;;;;;;;4.92;83.58;98365.84;4188432;28;20724;-88
2023/03/05 01:37:05;;;;;;;47.53;27.13;;;;;;;4.89;84.65;98358.22;4175124;28;20306;-88
2023/03/05 01:39:08;;;;;;;56.13;29.75;;;;;;;4.89;84.18;98358.22;4224676;28;20209;-88
2023/03/05 01:41:13;;;;;;;50.65;26.75;;;;;;;4.87;84.10;98354.84;4191841;28;20663;-88
2023/03/05 01:43:24;;;;;;;48.88;28.15;;;;;;;4.87;83.67;98347.94;4202977;28;20214;-88
2023/03/05 01:45:31;;;;;;;49.00;26.92;;;;;;;4.92;85.21;98358.09;4171857;28;20209;-88
2023/03/05 01:47:35;;;;;;;47.85;25.25;;;;;;;4.94;84.97;98343.34;4190831;28;20208;-88
2023/03/05 01:49:40;;;;;;;44.33;24.92;;;;;;;4.93;84.54;98345.09;4190217;28;20255;-88
2023/03/05 01:51:52;;;;;;;54.47;26.90;;;;;;;4.94;84.64;98340.78;4189135;28;20286;-88
2023/03/05 01:53:57;;;;;;;55.53;26.88;;;;;;;4.93;85.24;98342.53;4190980;28;20209;-88
2023/03/05 01:56:01;;;;;;;51.00;27.60;;;;;;;4.93;84.03;98342.53;4189408;28;20250;-88
2023/03/05 01:58:08;;;;;;;49.67;26.25;;;;;;;4.95;84.47;98337.28;4186919;28;20238;-88
2023/03/05 02:00:15;;;;;;;52.33;25.77;;;;;;;4.96;84.25;98328.63;4172017;28;20671;-88
2023/03/05 02:02:20;;;;;;;47.95;24.95;;;;;;;4.93;84.01;98332.19;4216839;28;20630;-88
2023/03/05 02:04:29;;;;;;;46.28;24.27;;;;;;;4.96;84.92;98336.38;4187686;28;20202;-88
2023/03/05 02:06:33;;;;;;;43.30;23.92;;;;;;;4.95;84.60;98338.13;4180987;28;20233;-88
2023/03/05 02:08:37;;;;;;;44.08;23.98;;;;;;;4.94;84.75;98323.50;4179259;28;20206;-88
2023/03/05 02:10:44;;;;;;;45.15;26.77;;;;;;;4.95;84.86;98332.13;4188663;28;20237;-88
2023/03/05 02:12:49;;;;;;;51.13;26.98;;;;;;;4.92;83.72;98321.91;4188903;28;20230;-88
2023/03/05 02:14:58;;;;;;;49.25;26.48;;;;;;;4.92;83.72;98322.75;4193045;28;20268;-88
2023/03/05 02:17:01;;;;;;;49.55;26.60;;;;;;;4.91;85.03;98323.63;4183453;28;20235;-88
2023/03/05 02:19:08;;;;;;;46.20;24.20;;;;;;;4.91;84.60;98318.47;4182407;28;20569;-88
2023/03/05 02:21:13;;;;;;;45.92;22.73;;;;;;;4.91;84.56;98321.06;4181020;28;20194;-88
2023/03/05 02:23:18;;;;;;;39.85;22.83;;;;;;;4.91;83.44;98312.47;4190380;28;20669;-88
2023/03/05 02:25:24;;;;;;;48.45;24.20;;;;;;;4.89;84.27;98311.72;4186982;28;20213;-88
2023/03/05 02:27:33;;;;;;;43.67;24.10;;;;;;;4.88;83.81;98310.03;4186707;28;20293;-88
2023/03/05 02:29:40;;;;;;;44.22;23.75;;;;;;;4.88;84.87;98304.84;4178772;28;20229;-88
2023/03/05 02:31:44;;;;;;;46.67;22.73;;;;;;;4.89;85.11;98306.53;4188766;28;20233;-88
2023/03/05 02:33:49;;;;;;;49.58;25.15;;;;;;;4.85;84.80;98300.66;4187067;28;20201;-88
2023/03/05 02:35:53;;;;;;;47.60;25.15;;;;;;;4.82;84.75;98297.38;4202965;28;20242;-88
2023/03/05 02:37:59;;;;;;;49.63;25.30;;;;;;;4.80;84.78;98294.03;4189643;28;20300;-88
2023/03/05 02:40:02;;;;;;;43.53;24.23;;;;;;;4.81;85.52;98295.69;4171145;28;20248;-88
2023/03/05 02:42:06;;;;;;;44.17;22.70;;;;;;;4.84;85.15;98295.53;4193557;28;20218;-88
2023/03/05 02:44:11;;;;;;;40.83;22.83;;;;;;;4.85;85.25;98294.66;4189489;28;20209;-88
2023/03/05 02:46:15;;;;;;;41.22;22.27;;;;;;;4.87;84.20;98292.84;4187191;28;20696;-88
2023/03/05 02:48:18;;;;;;;43.08;23.05;;;;;;;4.87;85.14;98298.00;4173272;28;20253;-88
2023/03/05 02:50:23;;;;;;;43.42;23.98;;;;;;;4.88;84.82;98294.53;4184748;28;20254;-88
2023/03/05 02:52:27;;;;;;;45.83;23.88;;;;;;;4.87;85.78;98283.38;4191399;28;20238;-88
2023/03/05 02:54:32;;;;;;;43.50;23.73;;;;;;;4.85;85.31;98289.50;4174498;28;20199;-88
2023/03/05 02:56:38;;;;;;;54.63;24.77;;;;;;;4.81;85.80;98288.78;4178170;28;20681;-88
2023/03/05 02:58:42;;;;;;;47.13;22.75;;;;;;;4.83;85.26;98280.97;4187048;28;20633;-87
2023/03/05 03:00:46;;;;;;;49.55;23.42;;;;;;;4.84;85.03;98283.50;4190266;28;20206;-88
2023/03/05 03:02:50;;;;;;;42.50;22.92;;;;;;;4.85;84.86;98282.56;4162636;28;20207;-88
2023/03/05 03:04:54;;;;;;;41.70;23.73;;;;;;;4.88;84.41;98273.84;4189191;28;20222;-88
2023/03/05 03:06:58;;;;;;;47.25;23.08;;;;;;;4.87;84.25;98273.03;4187659;28;20702;-87
2023/03/05 03:09:02;;;;;;;45.22;23.05;;;;;;;4.86;84.85;98270.50;4168827;28;20713;-87
2023/03/05 03:11:11;;;;;;;39.45;22.15;;;;;;;4.88;84.81;98274.69;4190564;28;20282;-88
2023/03/05 03:13:14;;;;;;;46.60;23.33;;;;;;;4.88;85.27;98271.28;4194510;28;20278;-87
2023/03/05 03:15:18;;;;;;;41.78;22.17;;;;;;;4.87;84.93;98279.91;4180454;28;20736;-87
2023/03/05 03:17:22;;;;;;;46.83;23.58;;;;;;;4.88;84.93;98272.09;4188379;28;20741;-88
2023/03/05 03:19:26;;;;;;;43.45;22.60;;;;;;;4.91;85.43;98273.72;4184221;28;20214;-88
2023/03/05 03:21:29;;;;;;;41.92;21.88;;;;;;;4.92;84.99;98273.66;4195962;28;20700;-87
2023/03/05 03:23:33;;;;;;;40.20;23.15;;;;;;;4.95;84.41;98265.78;4172362;28;20556;-88
2023/03/05 03:25:37;;;;;;;41.13;21.85;;;;;;;4.95;84.64;98259.78;4179915;28;20229;-88
2023/03/05 03:27:42;;;;;;;38.70;22.58;;;;;;;4.93;85.83;98262.44;4187590;28;20212;-88
2023/03/05 03:29:46;;;;;;;47.35;22.40;;;;;;;4.95;85.17;98263.19;4175552;28;20207;-88
2023/03/05 03:31:50;;;;;;;45.13;23.20;;;;;;;4.97;84.94;98257.97;4212657;28;20235;-88
2023/03/05 03:33:53;;;;;;;45.85;22.58;;;;;;;4.99;85.82;98262.16;4185592;28;20254;-88
2023/03/05 03:35:57;;;;;;;43.70;21.95;;;;;;;5.02;85.65;98256.00;4190160;28;20207;-88
2023/03/05 03:38:01;;;;;;;41.10;21.95;;;;;;;5.02;84.70;98254.28;4187740;28;20751;-88
2023/03/05 03:40:06;;;;;;;49.95;23.60;;;;;;;5.04;85.09;98252.47;4192070;28;20708;-88
2023/03/05 03:42:10;;;;;;;42.20;22.95;;;;;;;5.06;83.90;98249.81;4180445;28;20329;-88
2023/03/05 03:44:16;;;;;;;40.35;22.48;;;;;;;5.05;84.40;98241.22;4168239;28;20301;-88
2023/03/05 03:46:20;;;;;;;39.75;22.25;;;;;;;5.10;84.63;98243.56;4171586;28;20212;-88
2023/03/05 03:48:23;;;;;;;42.80;21.92;;;;;;;5.10;84.24;98243.56;4192057;28;20236;-88
2023/03/05 03:50:27;;;;;;;42.20;21.85;;;;;;;5.10;83.77;98249.59;4175069;28;20861;-88
2023/03/05 03:52:31;;;;;;;41.15;22.27;;;;;;;5.11;83.92;98240.94;4191446;28;20687;-88
2023/03/05 03:54:35;;;;;;;44.03;24.05;;;;;;;5.09;85.08;98241.91;4191293;28;20203;-88
2023/03/05 03:56:38;;;;;;;44.72;22.73;;;;;;;5.07;85.21;98234.22;4188122;28;20232;-88
2023/03/05 03:58:41;;;;;;;41.78;22.65;;;;;;;5.07;85.50;98228.25;4184358;28;20644;-88
2023/03/05 04:00:46;;;;;;;44.72;22.17;;;;;;;5.07;85.59;98229.06;4191476;28;20209;-88
2023/03/05 04:02:49;;;;;;;44.80;22.58;;;;;;;5.11;85.02;98228.00;4187668;28;20214;-88
2023/03/05 04:04:52;;;;;;;42.90;22.52;;;;;;;5.12;84.87;98229.69;4190743;28;20262;-88
2023/03/05 04:06:56;;;;;;;39.08;22.02;;;;;;;5.11;84.51;98225.41;4169294;28;20241;-88
2023/03/05 04:08:59;;;;;;;40.80;21.80;;;;;;;5.11;84.90;98224.59;4172677;28;20207;-88
2023/03/05 04:11:02;;;;;;;42.03;21.60;;;;;;;5.11;84.55;98228.00;4185834;28;20237;-88
2023/03/05 04:13:06;;;;;;;37.85;21.00;;;;;;;5.13;84.71;98224.44;4186157;28;20766;-88
2023/03/05 04:15:10;;;;;;;40.75;22.15;;;;;;;5.13;84.27;98222.75;4176738;28;20217;-88
2023/03/05 04:17:16;;;;;;;41.30;21.95;;;;;;;5.14;84.03;98226.13;4210844;28;20248;-88
2023/03/05 04:19:19;;;;;;;43.95;23.30;;;;;;;5.15;85.17;98219.22;4194190;28;20717;-88
2023/03/05 04:21:23;;;;;;;45.63;22.88;;;;;;;5.15;84.80;98217.47;4189316;28;20218;-88
2023/03/05 04:23:26;;;;;;;44.05;21.98;;;;;;;5.15;84.26;98216.63;4186385;28;20283;-88
2023/03/05 04:25:29;;;;;;;41.53;21.75;;;;;;;5.15;84.22;98211.47;4192736;28;20197;-88
2023/03/05 04:27:33;;;;;;;40.05;21.63;;;;;;;5.16;84.37;98213.97;4181334;28;20299;-88
2023/03/05 04:29:36;;;;;;;43.50;20.65;;;;;;;5.18;84.28;98219.06;4177527;28;20211;-88
2023/03/05 04:31:40;;;;;;;40.65;22.20;;;;;;;5.18;84.53;98217.31;4193168;28;20253;-87
2023/03/05 04:33:44;;;;;;;42.53;21.15;;;;;;;5.18;84.15;98211.31;4210012;28;20208;-87
2023/03/05 04:35:48;;;;;;;46.30;22.20;;;;;;;5.22;84.87;98213.69;4209521;28;20537;-87
2023/03/05 04:37:54;;;;;;;40.92;21.33;;;;;;;5.24;85.04;98222.22;4174405;28;20298;-88
2023/03/05 04:39:57;;;;;;;38.75;20.63;;;;;;;5.27;84.44;98216.09;4189963;28;20224;-88
2023/03/05 04:42:00;;;;;;;40.97;21.20;;;;;;;5.28;84.25;98213.44;4172109;28;20207;-87
2023/03/05 04:44:03;;;;;;;39.55;20.95;;;;;;;5.31;84.08;98222.78;4208375;28;20696;-88
2023/03/05 04:46:06;;;;;;;38.00;21.67;;;;;;;5.28;84.44;98210.84;4177107;28;20611;-87
2023/03/05 04:48:11;;;;;;;38.78;21.13;;;;;;;5.26;85.79;98212.66;4194720;28;20211;-88
2023/03/05 04:50:15;;;;;;;40.72;21.05;;;;;;;5.23;85.54;98210.22;4187519;28;20228;-87
2023/03/05 04:52:18;;;;;;;38.30;21.23;;;;;;;5.22;85.77;98213.69;4188985;28;20980;-87
2023/03/05 04:54:21;;;;;;;39.67;21.58;;;;;;;5.23;85.60;98207.63;4178010;28;20628;-88
2023/03/05 04:56:27;;;;;;;45.65;23.13;;;;;;;5.24;85.55;98208.47;4185642;28;20317;-88
2023/03/05 04:58:31;;;;;;;42.35;22.00;;;;;;;5.26;86.02;98204.06;4177558;28;20266;-87
2023/03/05 05:00:34;;;;;;;47.90;21.02;;;;;;;5.26;85.73;98204.91;4178650;28;20252;-87
2023/03/05 05:02:39;;;;;;;44.25;21.42;;;;;;;5.27;85.26;98201.41;4179729;28;20205;-87
2023/03/05 05:04:44;;;;;;;41.25;21.98;;;;;;;5.28;84.31;98197.91;4172832;28;20200;-87
2023/03/05 05:06:48;;;;;;;40.17;20.20;;;;;;;5.27;84.92;98203.16;4188535;28;20274;-87
2023/03/05 05:08:51;;;;;;;41.20;22.40;;;;;;;5.28;84.27;98199.66;4193334;28;20205;-88
2023/03/05 05:10:58;;;;;;;37.78;20.55;;;;;;;5.28;84.41;98202.25;4187995;28;20650;-88
2023/03/05 05:13:02;;;;;;;38.20;19.83;;;;;;;5.26;85.37;98198.88;4179742;28;20201;-88
2023/03/05 05:15:07;;;;;;;38.28;21.05;;;;;;;5.25;85.97;98199.81;4184311;28;20626;-88
2023/03/05 05:17:10;;;;;;;43.05;21.15;;;;;;;5.21;84.98;98193.91;4205171;28;20244;-87
2023/03/05 05:19:13;;;;;;;42.55;21.55;;;;;;;5.23;85.61;98199.03;4189899;28;20210;-87
2023/03/05 05:21:17;;;;;;;39.20;20.27;;;;;;;5.20;85.36;98194.84;4178080;28;20766;-88
2023/03/05 05:23:22;;;;;;;42.80;21.20;;;;;;;5.22;85.89;98190.44;4186977;28;20210;-88
2023/03/05 05:25:25;;;;;;;43.70;22.00;;;;;;;5.25;86.07;98198.06;4192061;28;20634;-88
2023/03/05 05:27:28;;;;;;;39.38;21.05;;;;;;;5.24;85.48;98203.28;4182572;28;20214;-87
2023/03/05 05:29:31;;;;;;;41.50;21.40;;;;;;;5.24;85.13;98201.53;4194938;28;20210;-88
2023/03/05 05:31:35;;;;;;;39.97;20.65;;;;;;;5.25;85.08;98205.81;4193034;28;20252;-88
2023/03/05 05:33:38;;;;;;;43.00;20.15;;;;;;;5.27;85.37;98203.97;4191025;28;20638;-87
2023/03/05 05:35:41;;;;;;;37.75;20.50;;;;;;;5.26;85.56;98197.16;4177246;28;20214;-87
2023/03/05 05:37:44;;;;;;;40.63;20.85;;;;;;;5.25;86.03;98203.22;4189913;28;20233;-88
2023/03/05 05:39:49;;;;;;;38.42;19.88;;;;;;;5.25;85.89;98194.63;4167708;28;20293;-88
2023/03/05 05:41:53;;;;;;;42.13;21.02;;;;;;;5.23;85.67;98199.88;4187167;28;20199;-88
2023/03/05 05:43:56;;;;;;;44.78;22.20;;;;;;;5.24;85.03;98198.94;4190755;28;20944;-87
2023/03/05 05:46:00;;;;;;;42.75;20.80;;;;;;;5.23;84.91;98193.84;4192021;28;20677;-88
2023/03/05 05:48:04;;;;;;;41.85;19.77;;;;;;;5.22;84.84;98198.19;4180086;28;20225;-88
2023/03/05 05:50:07;;;;;;;40.80;20.33;;;;;;;5.21;85.37;98200.84;4193511;28;20210;-89
2023/03/05 05:52:11;;;;;;;40.67;19.85;;;;;;;5.22;85.98;98200.78;4171719;28;20242;-87
2023/03/05 05:54:15;;;;;;;39.45;20.38;;;;;;;5.22;85.31;98198.19;4185037;28;20208;-87
2023/03/05 05:56:20;;;;;;;47.10;21.88;;;;;;;5.22;85.33;98190.44;4178582;28;20195;-88
2023/03/05 05:58:23;;;;;;;42.15;19.17;;;;;;;5.21;85.52;98196.50;4179296;28;20210;-88
2023/03/05 06:00:26;;;;;;;40.35;21.13;;;;;;;5.20;85.05;98199.16;4198703;28;20204;-87
2023/03/05 06:02:29;;;;;;;37.20;20.38;;;;;;;5.19;85.40;98198.34;4192180;28;20236;-88
2023/03/05 06:04:32;;;;;;;40.55;19.27;;;;;;;5.18;84.85;98199.22;4185651;28;20217;-88
2023/03/05 06:06:36;;;;;;;40.35;19.52;;;;;;;5.18;86.20;98198.41;4186888;28;20743;-87
2023/03/05 06:08:39;;;;;;;41.75;18.55;;;;;;;5.18;85.88;98195.81;4196566;28;20212;-88
2023/03/05 06:10:42;;;;;;;38.78;19.08;;;;;;;5.18;85.27;98196.66;4176663;28;20737;-87
2023/03/05 06:12:46;;;;;;;38.50;18.65;;;;;;;5.19;85.76;98200.91;4183449;28;20256;-88
2023/03/05 06:14:50;;;;;;;40.15;20.13;;;;;;;5.22;85.89;98203.38;4187782;28;20256;-87
2023/03/05 06:16:53;;;;;;;38.38;19.00;;;;;;;5.25;84.87;98202.41;4188576;28;20215;-88
2023/03/05 06:18:57;;;;;;;38.75;20.02;;;;;;;5.26;84.74;98204.06;4184508;28;20215;-88
2023/03/05 06:21:02;;;;;;;39.90;21.17;;;;;;;5.27;84.42;98200.56;4219281;28;20304;-88
2023/03/05 06:23:06;;;;;;;39.80;20.55;;;;;;;5.26;84.81;98196.28;4204419;28;20214;-88
2023/03/05 06:25:10;;;;;;;46.70;23.73;;;;;;;5.27;84.91;98197.97;4177790;28;20692;-87
2023/03/05 06:27:13;;;;;;;40.88;20.60;;;;;;;5.28;85.50;98197.09;4187056;28;20255;-87
2023/03/05 06:29:17;;;;;;;38.30;22.40;;;;;;;5.31;84.47;98191.78;4191433;28;20306;-88
2023/03/05 06:31:22;;;;;;;41.58;20.02;;;;;;;5.31;84.24;98192.59;4188195;28;20857;-88
2023/03/05 06:33:25;;;;;;;38.47;20.10;;;;;;;5.33;84.76;98198.53;4189670;28;20237;-87
2023/03/05 06:35:28;;;;;;;33.55;18.17;;;;;;;5.35;85.53;98199.31;4179435;28;20629;-87
2023/03/05 06:37:32;;;;;;;33.22;18.08;;;;;;;5.34;84.68;98194.22;4183635;28;20217;-88
2023/03/05 06:39:35;;;;;;;37.75;18.55;;;;;;;5.31;84.93;98195.19;4189882;28;20209;-88
2023/03/05 06:41:38;;;;;;;37.75;18.65;;;;;;;5.31;85.31;98190.03;4186303;28;20237;-87
2023/03/05 06:43:43;;;;;;;32.63;17.67;;;;;;;5.30;84.12;98188.34;4185332;28;20205;-87
2023/03/05 06:45:48;;;;;;;38.38;20.23;;;;;;;5.31;84.30;98189.19;4169611;28;20640;-88
2023/03/05 06:47:51;;;;;;;38.33;19.10;;;;;;;5.32;84.81;98189.13;4208391;28;20198;-87
2023/03/05 06:49:54;;;;;;;42.88;18.83;;;;;;;5.32;85.84;98183.09;4193409;28;20620;-88
2023/03/05 06:51:58;;;;;;;37.65;19.35;;;;;;;5.35;85.11;98193.28;4185059;28;20221;-87
2023/03/05 06:54:02;;;;;;;37.38;18.30;;;;;;;5.35;85.46;98188.97;4177394;28;20227;-88
2023/03/05 06:56:06;;;;;;;43.20;20.13;;;;;;;5.35;84.98;98188.13;4191797;28;20204;-88
2023/03/05 06:58:09;;;;;;;37.70;18.02;;;;;;;5.36;84.98;98190.63;4208238;28;20211;-88
2023/03/05 07:00:13;;;;;;;34.95;18.45;;;;;;;5.37;84.71;98187.16;4174339;28;20273;-87
2023/03/05 07:02:18;;;;;;;36.83;18.23;;;;;;;5.39;85.05;98185.31;4192222;28;20215;-87
2023/03/05 07:04:22;;;;;;;38.67;18.75;;;;;;;5.38;85.02;98183.66;4187752;28;20581;-88
2023/03/05 07:06:27;;;;;;;37.67;18.75;;;;;;;5.39;85.14;98174.97;4191146;28;20306;-87
2023/03/05 07:08:30;;;;;;;35.10;17.55;;;;;;;5.40;85.95;98179.25;4188771;28;20211;-87
2023/03/05 07:10:38;;;;;;;38.45;18.63;;;;;;;5.39;86.07;98185.31;4188912;28;20581;-88
2023/03/05 07:12:41;;;;;;;40.15;19.10;;;;;;;5.41;85.71;98188.69;4178528;28;20309;-87
2023/03/05 07:14:45;;;;;;;38.17;19.00;;;;;;;5.41;85.45;98188.69;4184886;28;20227;-88
2023/03/05 07:16:49;;;;;;;39.03;18.25;;;;;;;5.45;85.76;98191.97;4189679;28;20564;-88
2023/03/05 07:18:53;;;;;;;40.60;17.75;;;;;;;5.45;85.02;98184.22;4192202;28;20210;-87
2023/03/05 07:21:02;;;;;;;40.15;18.80;;;;;;;5.46;85.93;98178.97;4187699;28;20394;-88
2023/03/05 07:23:05;;;;;;;37.40;18.80;;;;;;;5.45;84.78;98171.28;4193113;28;20577;-88
2023/03/05 07:25:09;;;;;;;52.00;22.17;;;;;;;5.46;85.63;98173.78;4220511;28;20685;-87
2023/03/05 07:27:12;;;;;;;43.83;23.92;;;;;;;5.46;84.63;98183.28;4184174;28;20210;-88
2023/03/05 07:29:15;;;;;;;39.25;20.55;;;;;;;5.49;85.49;98181.41;4190240;28;20289;-88
2023/03/05 07:31:20;;;;;;;42.97;22.02;;;;;;;5.54;85.41;98181.19;4171185;28;20254;-88
2023/03/05 07:33:23;;;;;;;40.10;20.45;;;;;;;5.53;84.74;98180.34;4188715;28;20229;-88
2023/03/05 07:35:28;;;;;;;44.55;21.25;;;;;;;5.52;85.13;98185.59;4188519;28;20288;-88
2023/03/05 07:37:31;;;;;;;41.63;21.73;;;;;;;5.51;85.29;98184.75;4175794;28;20261;-88
2023/03/05 07:39:34;;;;;;;34.95;20.20;;;;;;;5.54;84.97;98182.03;4178086;28;20732;-88
2023/03/05 07:41:38;;;;;;;38.92;20.17;;;;;;;5.52;85.32;98178.69;4172820;28;20301;-88
2023/03/05 07:43:41;;;;;;;35.95;19.38;;;;;;;5.53;84.91;98172.56;4183189;28;20613;-88
2023/03/05 07:45:47;;;;;;;35.42;19.35;;;;;;;5.55;85.53;98175.94;4184264;28;20213;-88
2023/03/05 07:47:50;;;;;;;36.40;19.35;;;;;;;5.54;84.97;98176.84;4180213;28;20230;-88
2023/03/05 07:49:54;;;;;;;38.13;20.17;;;;;;;5.53;85.76;98179.50;4189139;28;20301;-88
2023/03/05 07:51:59;;;;;;;37.92;18.30;;;;;;;5.52;84.93;98168.34;4176065;28;20260;-88
2023/03/05 07:54:02;;;;;;;40.05;20.30;;;;;;;5.54;85.56;98176.03;4185632;28;20223;-88
2023/03/05 07:56:06;;;;;;;38.95;18.52;;;;;;;5.54;85.90;98170.84;4186868;28;20209;-88
2023/03/05 07:58:10;;;;;;;41.45;19.80;;;;;;;5.54;85.97;98163.09;4174827;28;20219;-88
2023/03/05 08:00:14;;;;;;;47.95;22.70;;;;;;;5.50;86.16;98167.56;4172234;28;20241;-87
2023/03/05 08:02:19;;;;;;;43.35;23.05;;;;;;;5.50;85.68;98158.97;4202096;28;20328;-88
2023/03/05 08:04:22;;;;;;;38.10;20.25;;;;;;;5.52;86.05;98168.34;4171752;28;20252;-88
2023/03/05 08:06:26;;;;;;;41.17;20.33;;;;;;;5.54;85.57;98176.03;4187532;28;20223;-88
2023/03/05 08:08:31;;;;;;;36.20;19.60;;;;;;;5.59;85.47;98166.28;4176486;28;20202;-88
2023/03/05 08:10:35;;;;;;;33.90;17.85;;;;;;;5.62;86.31;98166.97;4167082;28;20243;-88
2023/03/05 08:12:39;;;;;;;30.90;16.35;;;;;;;5.63;86.75;98171.25;4182886;28;20298;-88
2023/03/05 08:14:42;;;;;;;35.33;17.13;;;;;;;5.65;86.25;98166.81;4189797;28;20237;-88
2023/03/05 08:16:45;;;;;;;33.85;17.63;;;;;;;5.65;85.92;98170.28;4175377;28;20307;-88
2023/03/05 08:18:50;;;;;;;34.75;17.08;;;;;;;5.68;85.78;98171.84;4181718;28;20206;-88
2023/03/05 08:20:53;;;;;;;33.55;17.60;;;;;;;5.71;85.49;98176.88;4188120;28;20206;-88
2023/03/05 08:22:57;;;;;;;35.90;17.92;;;;;;;5.74;85.52;98172.44;4183303;28;20268;-88
2023/03/05 08:25:02;;;;;;;33.58;18.55;;;;;;;5.78;85.55;98167.97;4188022;28;20208;-88
2023/03/05 08:27:05;;;;;;;32.45;16.52;;;;;;;5.80;85.24;98164.41;4171434;28;20194;-88
2023/03/05 08:29:09;;;;;;;33.15;16.63;;;;;;;5.81;85.57;98160.88;4185929;28;20575;-88
2023/03/05 08:31:13;;;;;;;29.55;16.27;;;;;;;5.84;84.87;98163.31;4188040;28;20633;-88
2023/03/05 08:33:17;;;;;;;32.58;15.70;;;;;;;5.86;85.04;98165.84;4172725;28;20215;-88
2023/03/05 08:35:22;;;;;;;29.95;16.23;;;;;;;5.86;84.72;98169.25;4190637;28;20215;-88
2023/03/05 08:37:26;;;;;;;34.58;18.05;;;;;;;5.90;84.74;98164.78;4200719;28;20203;-88
2023/03/05 08:39:29;;;;;;;42.15;17.80;;;;;;;5.93;84.56;98165.47;4183263;28;20215;-88
2023/03/05 08:41:34;;;;;;;37.15;18.23;;;;;;;5.96;84.63;98164.47;4186785;28;20271;-88
2023/03/05 08:43:38;;;;;;;31.98;16.23;;;;;;;5.98;85.12;98158.28;4180889;28;20210;-88
2023/03/05 08:45:41;;;;;;;31.63;16.90;;;;;;;6.02;85.36;98164.19;4182331;28;20210;-90
2023/03/05 08:47:44;;;;;;;31.00;15.75;;;;;;;6.02;85.35;98171.94;4167563;28;21282;-89
2023/03/05 08:49:47;;;;;;;30.30;15.77;;;;;;;6.04;84.84;98170.13;4178178;28;20207;-90
2023/03/05 08:51:50;;;;;;;34.70;17.63;;;;;;;6.03;84.89;98158.06;4187744;28;20306;-89
2023/03/05 08:53:56;;;;;;;35.55;17.40;;;;;;;6.06;84.64;98160.50;4182922;28;20222;-90
2023/03/05 08:55:59;;;;;;;34.53;16.92;;;;;;;6.07;84.48;98159.59;4189218;28;20368;-89
2023/03/05 08:58:03;;;;;;;32.60;15.90;;;;;;;6.07;83.99;98157.84;4186933;28;20207;-90
2023/03/05 09:00:09;;;;;;;29.67;16.50;;;;;;;6.07;84.36;98152.66;4190225;28;20264;-83
2023/03/05 09:02:13;;;;;;;31.25;16.00;;;;;;;6.08;84.33;98156.94;4193590;28;20234;-85
2023/03/05 09:04:16;;;;;;;32.15;16.05;;;;;;;6.10;84.04;98165.47;4181784;28;20207;-84
2023/03/05 09:06:19;;;;;;;34.90;17.05;;;;;;;6.07;84.26;98152.66;4189241;28;20225;-85
2023/03/05 09:08:22;;;;;;;35.17;17.15;;;;;;;6.08;83.88;98156.94;4198225;28;20219;-87
2023/03/05 09:10:25;;;;;;;31.20;16.98;;;;;;;6.04;84.19;98149.41;4190543;28;20205;-86
2023/03/05 09:12:28;;;;;;;41.22;19.52;;;;;;;6.03;84.02;98145.13;4187990;28;20211;-86
2023/03/05 09:14:33;;;;;;;44.33;24.88;;;;;;;6.07;83.89;98149.25;4192946;28;20228;-86
2023/03/05 09:16:39;;;;;;;39.53;19.10;;;;;;;6.06;83.80;98147.56;4175589;28;20294;-86
2023/03/05 09:18:42;;;;;;;35.33;17.48;;;;;;;6.05;83.86;98145.91;4219050;27;20206;-85
2023/03/05 09:20:46;;;;;;;34.30;16.73;;;;;;;6.05;83.98;98148.50;4184789;28;20661;-86
2023/03/05 09:22:49;;;;;;;35.65;17.02;;;;;;;6.05;83.82;98146.75;4188230;28;20216;-87
2023/03/05 09:24:52;;;;;;;35.60;17.17;;;;;;;6.06;84.14;98142.38;4187052;28;20575;-85
2023/03/05 09:26:58;;;;;;;32.72;16.52;;;;;;;6.03;83.73;98137.38;4182425;28;20699;-86
2023/03/05 09:29:02;;;;;;;33.65;17.83;;;;;;;6.03;83.37;98137.38;4188186;28;20206;-85
2023/03/05 09:31:08;;;;;;;39.15;19.65;;;;;;;6.01;83.56;98131.44;4182020;28;20658;-85
2023/03/05 09:33:11;;;;;;;34.22;17.33;;;;;;;6.02;83.48;98133.13;4182449;28;20210;-83
2023/03/05 09:35:14;;;;;;;29.27;16.42;;;;;;;6.05;83.95;98128.63;4202524;28;20717;-84
2023/03/05 09:37:17;;;;;;;29.73;15.23;;;;;;;6.07;84.29;98131.13;4214748;28;20304;-84